Time;durP1;ratioP1;P1;durP2;ratioP2;P2;SDS_P1;SDS_P2;PMS_P1;PMS_P2;Temp;Humidity;BMP_temperature;BMP_pressure;BME280_temperature;BME280_humidity;BME280_pressure;Samples;Min_cycle;Max_cycle;Signal;HPM_P1;HPM_P2
2021/03/07 00:01:54;;;;;;;15.40;9.93;;;8.20;99.90;;;;;;5047795;28;20032;-62
2021/03/07 00:04:19;;;;;;;17.67;10.57;;;8.00;99.90;;;;;;5047543;28;20431;-61
2021/03/07 00:06:45;;;;;;;14.90;9.15;;;7.90;99.90;;;;;;5045565;28;20025;-61
2021/03/07 00:09:11;;;;;;;17.25;10.88;;;8.10;99.90;;;;;;5043449;28;20036;-61
2021/03/07 00:11:37;;;;;;;18.05;10.07;;;8.20;99.90;;;;;;5047444;28;20407;-61
2021/03/07 00:14:03;;;;;;;17.67;10.90;;;8.10;99.90;;;;;;5047324;28;20206;-61
2021/03/07 00:16:29;;;;;;;17.55;10.35;;;8.00;99.90;;;;;;5047231;28;20388;-61
2021/03/07 00:18:56;;;;;;;18.35;11.18;;;8.00;99.90;;;;;;5046595;28;20029;-61
2021/03/07 00:21:22;;;;;;;19.35;11.35;;;8.10;99.90;;;;;;5045964;28;20625;-61
2021/03/07 00:23:47;;;;;;;20.00;12.18;;;8.10;99.90;;;;;;5046140;28;20025;-61
2021/03/07 00:26:13;;;;;;;20.95;11.75;;;8.20;99.90;;;;;;5046011;28;20087;-61
2021/03/07 00:28:40;;;;;;;19.48;12.23;;;8.10;99.90;;;;;;5047275;28;20079;-60
2021/03/07 00:31:06;;;;;;;17.35;10.88;;;8.10;99.90;;;;;;5045688;28;20021;-61
2021/03/07 00:33:32;;;;;;;18.58;11.30;;;8.00;99.90;;;;;;5046670;28;20029;-61
2021/03/07 00:35:58;;;;;;;17.50;11.23;;;8.00;99.90;;;;;;5046402;28;20494;-61
2021/03/07 00:38:24;;;;;;;19.83;11.60;;;8.00;99.90;;;;;;5044341;28;20029;-61
2021/03/07 00:40:50;;;;;;;15.88;10.40;;;8.00;99.90;;;;;;5045727;28;20023;-61
2021/03/07 00:43:15;;;;;;;17.33;10.70;;;8.00;99.90;;;;;;5046397;28;20029;-61
2021/03/07 00:45:41;;;;;;;18.75;11.20;;;8.00;99.90;;;;;;5046722;28;20021;-62
2021/03/07 00:48:07;;;;;;;16.90;10.65;;;8.00;99.90;;;;;;5046891;28;20025;-61
2021/03/07 00:50:33;;;;;;;14.75;9.82;;;8.10;99.90;;;;;;5046715;28;20028;-61
2021/03/07 00:52:59;;;;;;;18.38;10.93;;;8.00;99.90;;;;;;5044925;28;20446;-62
2021/03/07 00:55:26;;;;;;;17.00;10.45;;;8.00;99.90;;;;;;5046550;28;20477;-62
2021/03/07 00:57:52;;;;;;;16.20;10.10;;;8.00;99.90;;;;;;5046498;28;20117;-62
2021/03/07 01:00:22;;;;;;;16.45;10.15;;;8.10;99.90;;;;;;5045397;28;20074;-61
2021/03/07 01:02:48;;;;;;;18.27;11.00;;;8.10;99.90;;;;;;5046396;28;20434;-62
2021/03/07 01:05:15;;;;;;;17.67;11.07;;;8.00;99.90;;;;;;5046181;28;20040;-61
2021/03/07 01:07:42;;;;;;;16.88;10.32;;;8.00;99.90;;;;;;5044022;28;20604;-62
2021/03/07 01:10:20;;;;;;;17.75;11.02;;;8.00;99.90;;;;;;5046334;28;20307;-61
2021/03/07 01:12:47;;;;;;;18.50;11.10;;;8.00;99.90;;;;;;5044389;28;20025;-61
2021/03/07 01:15:14;;;;;;;18.95;11.55;;;7.80;99.90;;;;;;5043868;28;20083;-61
2021/03/07 01:17:39;;;;;;;20.23;12.07;;;7.90;99.90;;;;;;5043672;28;20460;-61
2021/03/07 01:20:15;;;;;;;18.00;10.77;;;7.90;99.90;;;;;;5042261;28;20063;-61
2021/03/07 01:22:40;;;;;;;17.00;10.70;;;7.80;99.90;;;;;;5024334;28;20039;-62
2021/03/07 01:25:07;;;;;;;17.45;11.43;;;8.00;99.90;;;;;;5029558;28;20103;-61
2021/03/07 01:27:34;;;;;;;18.75;11.85;;;8.10;99.90;;;;;;5043795;28;20420;-61
2021/03/07 01:30:00;;;;;;;20.63;12.15;;;8.00;99.90;;;;;;5043721;28;20476;-61
2021/03/07 01:32:26;;;;;;;20.75;12.52;;;8.10;99.90;;;;;;5043199;28;20036;-61
2021/03/07 01:34:53;;;;;;;25.38;14.13;;;8.10;99.90;;;;;;5042913;28;20247;-61
2021/03/07 01:37:18;;;;;;;26.55;15.27;;;8.20;99.90;;;;;;5044890;28;20040;-61
2021/03/07 01:39:44;;;;;;;28.15;15.02;;;8.00;99.90;;;;;;5044339;28;20025;-61
2021/03/07 01:42:11;;;;;;;24.83;15.32;;;7.90;99.90;;;;;;5043993;28;20442;-61
2021/03/07 01:44:37;;;;;;;24.67;14.25;;;7.90;99.90;;;;;;5044328;28;20029;-61
2021/03/07 01:47:04;;;;;;;25.23;13.98;;;8.00;99.90;;;;;;5040455;28;20036;-61
2021/03/07 01:49:30;;;;;;;21.85;13.27;;;7.90;99.90;;;;;;5042985;28;20023;-61
2021/03/07 01:51:56;;;;;;;19.63;11.98;;;7.90;99.90;;;;;;5045488;28;20119;-62
2021/03/07 01:54:23;;;;;;;20.80;12.13;;;7.90;99.90;;;;;;5048159;28;20552;-62
2021/03/07 01:56:52;;;;;;;19.67;11.93;;;7.80;99.90;;;;;;5048800;28;20484;-61
2021/03/07 01:59:21;;;;;;;20.17;12.73;;;7.70;99.90;;;;;;5048467;28;20025;-61
2021/03/07 02:01:48;;;;;;;18.60;11.27;;;7.60;99.90;;;;;;5047251;28;20037;-61
2021/03/07 02:04:15;;;;;;;18.88;11.57;;;7.60;99.90;;;;;;5047979;28;20079;-62
2021/03/07 02:06:41;;;;;;;16.63;11.40;;;7.60;99.90;;;;;;5048100;28;20408;-62
2021/03/07 02:09:07;;;;;;;19.90;12.88;;;7.60;99.90;;;;;;5047474;28;20029;-61
2021/03/07 02:11:36;;;;;;;19.40;12.32;;;7.60;99.90;;;;;;5047683;28;20056;-62
2021/03/07 02:14:02;;;;;;;19.33;11.90;;;7.50;99.90;;;;;;5048068;28;20079;-62
2021/03/07 02:16:28;;;;;;;20.73;12.27;;;7.60;99.90;;;;;;5046126;28;20123;-62
2021/03/07 02:18:55;;;;;;;20.50;11.80;;;7.60;99.90;;;;;;5046316;28;20343;-62
2021/03/07 02:21:48;;;;;;;20.50;13.00;;;7.60;99.90;;;;;;5047871;28;20039;-62
2021/03/07 02:24:16;;;;;;;20.45;12.85;;;7.60;99.90;;;;;;5046629;28;20048;-61
2021/03/07 02:26:46;;;;;;;20.08;12.73;;;7.60;99.90;;;;;;5047623;28;20032;-61
2021/03/07 02:29:15;;;;;;;22.73;12.95;;;7.60;99.90;;;;;;5045827;28;20364;-61
2021/03/07 02:31:56;;;;;;;22.48;12.60;;;7.60;99.90;;;;;;5046059;28;20124;-61
2021/03/07 02:34:30;;;;;;;21.20;13.05;;;7.70;99.90;;;;;;5047192;28;20039;-62
2021/03/07 02:36:59;;;;;;;20.73;12.80;;;7.70;99.90;;;;;;5047323;28;20490;-61
2021/03/07 02:39:28;;;;;;;21.70;12.90;;;7.60;99.90;;;;;;5046928;28;20330;-61
2021/03/07 02:41:58;;;;;;;22.30;13.45;;;7.80;99.90;;;;;;5045381;28;20029;-61
2021/03/07 02:44:25;;;;;;;24.98;13.88;;;7.80;99.90;;;;;;5046535;28;20127;-62
2021/03/07 02:46:52;;;;;;;23.02;14.10;;;7.70;99.90;;;;;;5046947;28;20028;-62
2021/03/07 02:49:18;;;;;;;24.25;14.40;;;7.80;99.90;;;;;;5047314;28;20445;-61
2021/03/07 02:51:47;;;;;;;24.50;13.65;;;7.80;99.90;;;;;;5045403;28;20124;-61
2021/03/07 02:54:14;;;;;;;21.02;12.90;;;7.80;99.90;;;;;;5045192;28;20037;-62
2021/03/07 02:56:42;;;;;;;22.73;13.93;;;7.80;99.90;;;;;;5046626;28;20575;-61
2021/03/07 02:59:13;;;;;;;22.55;13.05;;;7.80;99.90;;;;;;5046684;28;20021;-61
2021/03/07 03:01:40;;;;;;;23.05;13.55;;;7.80;99.90;;;;;;5045879;28;20117;-61
2021/03/07 03:04:07;;;;;;;19.38;12.52;;;7.70;99.90;;;;;;5045373;28;20147;-62
2021/03/07 03:06:40;;;;;;;19.67;12.85;;;7.70;99.90;;;;;;5046778;28;20036;-61
2021/03/07 03:09:10;;;;;;;24.08;14.23;;;7.70;99.90;;;;;;5046631;28;20031;-61
2021/03/07 03:11:39;;;;;;;22.75;13.57;;;7.70;99.90;;;;;;5043994;28;20047;-61
2021/03/07 03:14:07;;;;;;;21.25;12.60;;;7.80;99.90;;;;;;5046496;28;20037;-61
2021/03/07 03:16:34;;;;;;;19.30;12.23;;;7.80;99.90;;;;;;5045672;28;20214;-61
2021/03/07 03:19:05;;;;;;;22.42;13.50;;;7.90;99.90;;;;;;5045085;28;20025;-61
2021/03/07 03:21:31;;;;;;;20.67;12.80;;;7.70;99.90;;;;;;5045397;28;20029;-61
2021/03/07 03:23:57;;;;;;;18.83;12.60;;;7.60;99.90;;;;;;5046028;28;20021;-61
2021/03/07 03:26:24;;;;;;;20.77;12.27;;;7.60;99.90;;;;;;5045941;28;20044;-62
2021/03/07 03:28:54;;;;;;;19.05;12.52;;;7.60;99.90;;;;;;5046061;28;20301;-61
2021/03/07 03:31:20;;;;;;;20.58;12.10;;;7.70;99.90;;;;;;5045755;28;20064;-61
2021/03/07 03:33:46;;;;;;;20.25;12.38;;;7.80;99.90;;;;;;5045765;28;20044;-61
2021/03/07 03:36:12;;;;;;;22.20;12.52;;;8.00;99.90;;;;;;5045839;28;20129;-61
2021/03/07 03:38:46;;;;;;;20.67;12.68;;;8.00;99.90;;;;;;5046008;28;20071;-61
2021/03/07 03:41:13;;;;;;;20.08;12.55;;;8.10;99.90;;;;;;5044312;28;20031;-61
2021/03/07 03:43:42;;;;;;;21.13;12.25;;;8.10;99.90;;;;;;5046210;28;20086;-61
2021/03/07 03:46:10;;;;;;;15.48;10.52;;;8.20;99.90;;;;;;5045441;28;20021;-61
2021/03/07 03:48:42;;;;;;;20.80;12.07;;;8.20;99.90;;;;;;5044686;28;20099;-61
2021/03/07 03:51:09;;;;;;;20.60;12.02;;;8.30;99.90;;;;;;5045489;28;20040;-61
2021/03/07 03:53:37;;;;;;;21.42;12.70;;;8.30;99.90;;;;;;5043544;28;20032;-62
2021/03/07 03:56:04;;;;;;;20.98;11.88;;;8.30;99.90;;;;;;5044515;28;20025;-61
2021/03/07 03:58:36;;;;;;;19.45;11.35;;;8.30;99.90;;;;;;5045975;28;20104;-61
2021/03/07 04:01:04;;;;;;;21.05;11.93;;;8.20;99.90;;;;;;5044436;28;20024;-61
2021/03/07 04:03:30;;;;;;;26.48;12.95;;;8.20;99.90;;;;;;5044238;28;20056;-61
2021/03/07 04:05:57;;;;;;;26.35;14.15;;;8.20;99.90;;;;;;5045320;28;20051;-61
2021/03/07 04:08:24;;;;;;;28.63;14.75;;;8.20;99.90;;;;;;5045693;28;20021;-61
2021/03/07 04:10:51;;;;;;;26.90;14.25;;;8.20;99.90;;;;;;5045794;28;20025;-61
2021/03/07 04:13:25;;;;;;;37.65;16.70;;;8.30;99.90;;;;;;5044421;28;20040;-61
2021/03/07 04:15:55;;;;;;;36.58;18.80;;;8.20;99.90;;;;;;5044834;28;20036;-62
2021/03/07 04:18:24;;;;;;;35.30;18.40;;;8.00;99.90;;;;;;5045616;28;20033;-61
2021/03/07 04:20:50;;;;;;;37.10;20.85;;;8.00;99.90;;;;;;5044460;28;20052;-62
2021/03/07 04:23:16;;;;;;;39.72;22.58;;;8.10;99.90;;;;;;5044244;28;20043;-61
2021/03/07 04:25:43;;;;;;;32.47;19.77;;;8.00;99.90;;;;;;5044967;28;20079;-61
2021/03/07 04:28:10;;;;;;;27.55;17.25;;;7.90;99.90;;;;;;5043959;28;20025;-61
2021/03/07 04:30:37;;;;;;;28.58;16.15;;;7.80;99.90;;;;;;5044753;28;20021;-61
2021/03/07 04:33:06;;;;;;;21.98;13.10;;;8.00;99.90;;;;;;5043546;28;20033;-61
2021/03/07 04:35:33;;;;;;;19.30;11.65;;;8.10;99.90;;;;;;5044959;28;20021;-61
2021/03/07 04:38:02;;;;;;;18.05;10.90;;;8.30;99.90;;;;;;5044999;28;20054;-61
2021/03/07 04:40:28;;;;;;;18.88;10.88;;;8.30;99.90;;;;;;5044963;28;20435;-61
2021/03/07 04:42:56;;;;;;;16.00;9.48;;;8.40;99.90;;;;;;5043718;28;20111;-62
2021/03/07 04:45:22;;;;;;;17.33;10.35;;;8.40;99.90;;;;;;5045879;28;20064;-61
2021/03/07 04:47:48;;;;;;;17.58;10.63;;;8.50;99.90;;;;;;5043590;28;20104;-61
2021/03/07 04:50:14;;;;;;;17.80;10.75;;;8.40;99.90;;;;;;5044286;28;20128;-61
2021/03/07 04:52:41;;;;;;;21.13;11.75;;;8.30;99.90;;;;;;5043024;28;20032;-61
2021/03/07 04:55:08;;;;;;;22.13;13.38;;;8.10;99.90;;;;;;5043657;28;20407;-62
2021/03/07 04:57:35;;;;;;;25.83;14.40;;;8.10;99.90;;;;;;5044561;28;20059;-61
2021/03/07 05:00:06;;;;;;;24.17;14.68;;;8.10;99.90;;;;;;5044121;28;20373;-62
2021/03/07 05:02:32;;;;;;;23.42;13.27;;;8.10;99.90;;;;;;5043034;28;20120;-62
2021/03/07 05:04:59;;;;;;;23.65;14.07;;;8.00;99.90;;;;;;5044261;28;20075;-62
2021/03/07 05:07:25;;;;;;;21.95;13.52;;;8.00;99.90;;;;;;5044327;28;20025;-62
2021/03/07 05:09:50;;;;;;;21.40;13.98;;;8.00;99.90;;;;;;5044039;28;20078;-61
2021/03/07 05:12:16;;;;;;;22.50;14.10;;;8.00;99.90;;;;;;5044059;28;20029;-61
2021/03/07 05:14:42;;;;;;;21.40;14.23;;;8.00;99.90;;;;;;5043997;28;20033;-61
2021/03/07 05:17:07;;;;;;;22.55;14.18;;;8.00;99.90;;;;;;5042862;28;20044;-61
2021/03/07 05:19:34;;;;;;;23.85;14.50;;;7.90;99.90;;;;;;5044073;28;20100;-61
2021/03/07 05:21:59;;;;;;;22.98;14.07;;;8.00;99.90;;;;;;5043780;28;20040;-61
2021/03/07 05:24:25;;;;;;;22.20;13.20;;;7.90;99.90;;;;;;5043374;28;20024;-62
2021/03/07 05:26:50;;;;;;;22.33;13.65;;;7.80;99.90;;;;;;5048497;28;20495;-61
2021/03/07 05:29:16;;;;;;;24.50;13.77;;;7.90;99.90;;;;;;5050852;28;20488;-61
2021/03/07 05:31:42;;;;;;;23.30;14.43;;;7.80;99.90;;;;;;5049946;28;20125;-61
2021/03/07 05:34:07;;;;;;;21.77;12.95;;;7.80;99.90;;;;;;5049778;28;20029;-62
2021/03/07 05:36:33;;;;;;;21.52;13.13;;;7.90;99.90;;;;;;5050426;28;20032;-62
2021/03/07 05:38:59;;;;;;;21.00;12.80;;;7.90;99.90;;;;;;5050636;28;20454;-62
2021/03/07 05:41:24;;;;;;;21.48;12.45;;;7.80;99.90;;;;;;5050527;28;20112;-62
2021/03/07 05:43:50;;;;;;;22.63;13.90;;;7.90;99.90;;;;;;5049376;28;20025;-62
2021/03/07 05:46:16;;;;;;;22.42;13.05;;;7.90;99.90;;;;;;5050050;28;20106;-62
2021/03/07 05:48:43;;;;;;;22.83;13.40;;;7.80;99.90;;;;;;5050244;28;20021;-62
2021/03/07 05:51:13;;;;;;;22.40;13.27;;;7.90;99.90;;;;;;5050071;28;20027;-62
2021/03/07 05:53:46;;;;;;;20.60;12.80;;;7.90;99.90;;;;;;5049343;28;20051;-62
2021/03/07 05:56:12;;;;;;;22.65;12.82;;;8.00;99.90;;;;;;5050412;28;20191;-62
2021/03/07 05:58:39;;;;;;;20.95;13.02;;;7.90;99.90;;;;;;5050680;28;20028;-62
2021/03/07 06:01:05;;;;;;;23.55;12.65;;;8.00;99.90;;;;;;5049307;28;20155;-62
2021/03/07 06:03:31;;;;;;;20.02;12.43;;;8.00;99.90;;;;;;5049635;28;20108;-62
2021/03/07 06:05:57;;;;;;;23.42;13.85;;;8.00;99.90;;;;;;5050247;28;20021;-62
2021/03/07 06:08:23;;;;;;;20.92;12.68;;;8.00;99.90;;;;;;5051143;28;20561;-61
2021/03/07 06:10:50;;;;;;;21.83;13.75;;;7.90;99.90;;;;;;5050870;28;20112;-61
2021/03/07 06:13:16;;;;;;;19.75;12.43;;;7.90;99.90;;;;;;5049200;28;20029;-61
2021/03/07 06:15:49;;;;;;;21.20;12.70;;;7.80;99.90;;;;;;5049143;28;20504;-61
2021/03/07 06:18:17;;;;;;;19.95;11.95;;;7.90;99.90;;;;;;5050177;28;20036;-61
2021/03/07 06:20:45;;;;;;;19.38;11.13;;;7.80;99.90;;;;;;5050498;28;20079;-61
2021/03/07 06:23:12;;;;;;;28.35;15.10;;;7.70;99.90;;;;;;5050160;28;20071;-61
2021/03/07 06:26:10;;;;;;;21.50;12.98;;;7.40;99.90;;;;;;5051214;28;20032;-61
2021/03/07 06:28:36;;;;;;;25.13;13.90;;;7.40;99.90;;;;;;5046215;28;20506;-60
2021/03/07 06:31:02;;;;;;;25.00;14.80;;;7.10;99.90;;;;;;5051459;28;20029;-61
2021/03/07 06:33:33;;;;;;;22.85;14.93;;;6.90;99.90;;;;;;5051732;28;20029;-61
2021/03/07 06:36:23;;;;;;;22.55;13.55;;;6.90;99.90;;;;;;5051754;28;20075;-61
2021/03/07 06:38:49;;;;;;;19.50;11.98;;;7.00;99.90;;;;;;5046808;28;20029;-61
2021/03/07 06:41:21;;;;;;;17.40;11.02;;;7.30;99.90;;;;;;5048120;28;20057;-61
2021/03/07 06:43:47;;;;;;;18.83;10.98;;;7.40;99.90;;;;;;5048819;28;20033;-61
2021/03/07 06:46:32;;;;;;;15.88;9.55;;;7.60;99.90;;;;;;5047685;28;20028;-61
2021/03/07 06:48:58;;;;;;;19.17;10.60;;;7.80;99.90;;;;;;5046947;28;20099;-61
2021/03/07 06:51:31;;;;;;;16.67;9.45;;;7.80;99.90;;;;;;5049692;28;20036;-61
2021/03/07 06:53:59;;;;;;;18.02;10.65;;;7.80;99.90;;;;;;5048427;28;20032;-61
2021/03/07 06:56:50;;;;;;;13.38;9.02;;;7.80;99.90;;;;;;5047667;28;20033;-61
2021/03/07 06:59:23;;;;;;;17.00;10.75;;;7.70;99.90;;;;;;5045293;28;20029;-61
2021/03/07 07:01:51;;;;;;;17.50;10.47;;;7.80;99.90;;;;;;5047182;28;20060;-61
2021/03/07 07:04:18;;;;;;;16.33;9.55;;;8.00;99.90;;;;;;5048495;28;20483;-61
2021/03/07 07:07:09;;;;;;;15.60;9.20;;;8.00;99.90;;;;;;5047328;28;20025;-61
2021/03/07 07:09:36;;;;;;;15.43;9.48;;;8.20;99.90;;;;;;5046309;28;20636;-61
2021/03/07 07:12:04;;;;;;;14.18;8.20;;;8.20;99.90;;;;;;5046541;28;20029;-62
2021/03/07 07:14:40;;;;;;;11.63;7.88;;;8.20;99.90;;;;;;5045300;28;20041;-61
2021/03/07 07:17:15;;;;;;;12.45;7.38;;;8.10;99.90;;;;;;5045410;28;20021;-62
2021/03/07 07:19:43;;;;;;;13.57;7.60;;;8.40;99.90;;;;;;5041867;28;20108;-62
2021/03/07 07:22:13;;;;;;;11.82;7.18;;;8.40;99.90;;;;;;5043695;28;20571;-62
2021/03/07 07:24:40;;;;;;;12.55;7.55;;;8.40;99.90;;;;;;5044102;28;20036;-62
2021/03/07 07:27:06;;;;;;;11.85;7.20;;;8.50;99.90;;;;;;5027386;28;20107;-62
2021/03/07 07:29:34;;;;;;;14.70;8.20;;;8.60;99.90;;;;;;5035827;28;20029;-62
2021/03/07 07:32:08;;;;;;;11.93;7.15;;;8.60;99.90;;;;;;5046256;28;20036;-62
2021/03/07 07:34:49;;;;;;;11.90;7.97;;;8.70;99.90;;;;;;5044254;28;20751;-61
2021/03/07 07:37:40;;;;;;;12.50;8.25;;;8.70;99.90;;;;;;5039064;28;20021;-61
2021/03/07 07:40:07;;;;;;;13.07;8.63;;;8.80;99.90;;;;;;5052593;28;20116;-62
2021/03/07 07:42:34;;;;;;;13.90;8.00;;;8.80;99.90;;;;;;5047741;28;20032;-62
2021/03/07 07:45:18;;;;;;;12.68;8.35;;;8.90;99.90;;;;;;5048109;28;20029;-62
2021/03/07 07:47:56;;;;;;;14.75;8.43;;;9.00;99.90;;;;;;5048351;28;20761;-62
2021/03/07 07:50:27;;;;;;;9.57;6.65;;;9.00;99.90;;;;;;5051229;28;20032;-62
2021/03/07 07:53:03;;;;;;;10.18;6.55;;;9.10;99.90;;;;;;5047036;28;20391;-61
2021/03/07 07:55:53;;;;;;;11.77;6.72;;;9.20;99.90;;;;;;5047871;28;20029;-62
2021/03/07 07:58:34;;;;;;;10.05;6.25;;;9.40;99.90;;;;;;5045714;28;20079;-62
2021/03/07 08:01:03;;;;;;;9.60;5.53;;;9.40;99.90;;;;;;5045283;28;20079;-62
2021/03/07 08:03:37;;;;;;;8.23;5.45;;;9.50;99.90;;;;;;5045903;28;20410;-62
2021/03/07 08:06:11;;;;;;;9.90;6.10;;;9.60;99.90;;;;;;5045253;28;20036;-62
2021/03/07 08:08:42;;;;;;;9.02;6.00;;;9.50;99.90;;;;;;5044955;28;20487;-62
2021/03/07 08:11:26;;;;;;;8.38;5.57;;;9.60;99.90;;;;;;5046115;28;20033;-61
2021/03/07 08:13:54;;;;;;;10.47;6.90;;;9.60;99.90;;;;;;5043923;28;20068;-62
2021/03/07 08:16:42;;;;;;;8.18;5.70;;;9.60;99.90;;;;;;5045015;28;20033;-61
2021/03/07 08:19:11;;;;;;;8.55;5.70;;;9.80;99.90;;;;;;5027687;28;20468;-61
2021/03/07 08:22:07;;;;;;;8.75;5.28;;;9.90;99.90;;;;;;5039098;28;20086;-61
2021/03/07 08:24:57;;;;;;;8.98;5.55;;;9.90;99.90;;;;;;5042838;28;20064;-64
2021/03/07 08:27:40;;;;;;;5.90;4.32;;;9.90;99.90;;;;;;5045378;28;20079;-61
2021/03/07 08:30:10;;;;;;;6.03;3.63;;;10.10;99.90;;;;;;5046431;28;20083;-61
2021/03/07 08:32:39;;;;;;;7.55;4.80;;;10.20;99.90;;;;;;5049599;28;20043;-61
2021/03/07 08:35:25;;;;;;;6.18;4.05;;;10.40;99.90;;;;;;5063614;28;20063;-61
2021/03/07 08:38:14;;;;;;;5.38;3.72;;;10.50;99.90;;;;;;5062243;28;20384;-60
2021/03/07 08:40:44;;;;;;;6.80;4.38;;;10.50;99.90;;;;;;5027493;28;20076;-61
2021/03/07 08:43:25;;;;;;;6.38;4.28;;;10.50;99.90;;;;;;5046064;28;20123;-61
2021/03/07 08:46:00;;;;;;;5.93;4.63;;;10.60;99.90;;;;;;5047657;28;20033;-61
2021/03/07 08:48:27;;;;;;;6.85;4.68;;;10.50;99.90;;;;;;5045636;28;20044;-61
2021/03/07 08:50:53;;;;;;;5.65;4.22;;;10.70;99.90;;;;;;5047547;28;20033;-61
2021/03/07 08:53:23;;;;;;;4.45;3.30;;;10.70;99.90;;;;;;5047001;28;20025;-62
2021/03/07 08:55:50;;;;;;;4.65;3.03;;;10.90;99.90;;;;;;5045912;28;20033;-61
2021/03/07 08:58:20;;;;;;;3.30;2.58;;;11.10;99.90;;;;;;5043461;28;20043;-61
2021/03/07 09:00:47;;;;;;;3.10;2.58;;;11.20;99.90;;;;;;5046046;28;20042;-60
2021/03/07 09:03:17;;;;;;;5.82;3.67;;;11.20;99.90;;;;;;5046596;28;20406;-62
2021/03/07 09:05:43;;;;;;;3.80;2.83;;;11.00;99.90;;;;;;5045662;28;20507;-60
2021/03/07 09:08:09;;;;;;;5.65;3.53;;;11.20;99.90;;;;;;5045249;28;20021;-61
2021/03/07 09:10:41;;;;;;;4.60;2.88;;;11.30;99.90;;;;;;5045244;28;20037;-61
2021/03/07 09:13:08;;;;;;;4.38;2.90;;;11.40;99.90;;;;;;5044962;28;20047;-61
2021/03/07 09:15:39;;;;;;;5.32;2.72;;;11.50;99.90;;;;;;5025706;28;20029;-61
2021/03/07 09:18:06;;;;;;;5.05;3.72;;;11.50;99.90;;;;;;5025513;28;20458;-61
2021/03/07 09:20:52;;;;;;;4.60;3.10;;;11.70;99.90;;;;;;5025509;28;20021;-61
2021/03/07 09:23:29;;;;;;;4.22;2.92;;;11.60;99.90;;;;;;5025490;28;20026;-61
2021/03/07 09:25:58;;;;;;;5.10;2.97;;;11.70;99.90;;;;;;5025415;28;20025;-62
2021/03/07 09:28:35;;;;;;;3.85;2.70;;;11.60;99.90;;;;;;5025390;28;20025;-62
2021/03/07 09:31:04;;;;;;;6.07;3.50;;;11.60;99.90;;;;;;5030099;28;21676;-62
2021/03/07 09:33:31;;;;;;;3.55;2.70;;;11.60;99.90;;;;;;5041956;28;20025;-61
2021/03/07 09:36:11;;;;;;;4.38;3.28;;;11.60;99.90;;;;;;5044826;28;20075;-61
2021/03/07 09:38:55;;;;;;;5.60;3.45;;;11.60;99.90;;;;;;5045658;28;20074;-62
2021/03/07 09:41:47;;;;;;;4.82;3.05;;;11.80;99.90;;;;;;5046148;28;20051;-62
2021/03/07 09:44:23;;;;;;;3.05;2.45;;;11.80;99.90;;;;;;5043608;28;20400;-61
2021/03/07 09:46:51;;;;;;;5.10;3.33;;;11.80;99.90;;;;;;5045339;28;20503;-61
2021/03/07 09:49:22;;;;;;;3.38;2.65;;;11.80;99.90;;;;;;5045312;28;20020;-62
2021/03/07 09:51:50;;;;;;;2.90;2.38;;;11.90;99.90;;;;;;5045089;28;20090;-61
2021/03/07 09:54:17;;;;;;;3.63;2.25;;;12.00;99.90;;;;;;5044773;28;20482;-62
2021/03/07 09:56:43;;;;;;;4.30;2.88;;;12.00;99.90;;;;;;5045156;28;20050;-62
2021/03/07 09:59:38;;;;;;;6.60;4.43;;;12.10;99.90;;;;;;5044454;28;20123;-62
2021/03/07 10:02:06;;;;;;;9.65;5.70;;;11.90;99.90;;;;;;5040034;28;20071;-62
2021/03/07 10:04:34;;;;;;;9.85;6.55;;;11.90;99.90;;;;;;5045115;28;20448;-62
2021/03/07 10:07:10;;;;;;;8.48;5.55;;;11.80;99.90;;;;;;5044659;28;20031;-62
2021/03/07 10:09:58;;;;;;;6.40;5.10;;;12.00;99.90;;;;;;5044889;28;20062;-62
2021/03/07 10:12:25;;;;;;;5.85;3.97;;;12.10;99.90;;;;;;5045104;28;20052;-62
2021/03/07 10:14:54;;;;;;;5.20;3.50;;;12.00;99.90;;;;;;5049406;28;20036;-62
2021/03/07 10:17:23;;;;;;;6.75;4.60;;;12.20;99.90;;;;;;5049478;28;20029;-62
2021/03/07 10:19:50;;;;;;;6.82;4.50;;;12.20;99.90;;;;;;5048832;28;20025;-62
2021/03/07 10:22:16;;;;;;;8.63;6.30;;;12.10;99.90;;;;;;5044440;28;20136;-61
2021/03/07 10:24:42;;;;;;;10.65;6.75;;;11.90;99.90;;;;;;5045387;28;20486;-61
2021/03/07 10:27:09;;;;;;;17.17;11.57;;;12.00;99.90;;;;;;5046494;28;20032;-60
2021/03/07 10:29:39;;;;;;;13.57;8.18;;;11.80;99.90;;;;;;5046020;28;20029;-62
2021/03/07 10:32:10;;;;;;;9.77;6.65;;;12.00;99.90;;;;;;5039875;28;20112;-60
2021/03/07 10:34:42;;;;;;;10.30;6.70;;;12.20;99.90;;;;;;5044680;28;20551;-59
2021/03/07 10:37:09;;;;;;;12.60;7.78;;;12.30;99.90;;;;;;5040560;28;20029;-59
2021/03/07 10:39:35;;;;;;;12.68;8.52;;;12.20;99.90;;;;;;5046732;28;20052;-59
2021/03/07 10:42:09;;;;;;;9.40;6.47;;;12.20;99.90;;;;;;5046292;28;20053;-59
2021/03/07 10:44:35;;;;;;;12.75;7.70;;;12.40;99.90;;;;;;5048007;28;20100;-59
2021/03/07 10:47:21;;;;;;;17.10;10.68;;;12.30;99.90;;;;;;5045781;28;20032;-59
2021/03/07 10:49:50;;;;;;;13.27;9.10;;;12.20;99.90;;;;;;5045019;28;20028;-59
2021/03/07 10:52:17;;;;;;;10.57;7.35;;;12.50;99.90;;;;;;5044204;28;20120;-60
2021/03/07 10:54:44;;;;;;;11.55;7.10;;;12.60;99.90;;;;;;5044856;28;20410;-60
2021/03/07 10:57:10;;;;;;;10.50;6.82;;;12.50;99.90;;;;;;5046156;28;20094;-60
2021/03/07 10:59:37;;;;;;;10.30;6.53;;;12.60;99.90;;;;;;5045608;28;20041;-60
2021/03/07 11:02:09;;;;;;;8.25;5.93;;;12.70;99.90;;;;;;5045919;28;20036;-60
2021/03/07 11:04:35;;;;;;;10.50;6.80;;;12.60;99.90;;;;;;5045993;28;20036;-60
2021/03/07 11:07:02;;;;;;;8.45;5.65;;;12.50;99.90;;;;;;5045584;28;20028;-59
2021/03/07 11:09:28;;;;;;;7.88;5.28;;;12.70;99.90;;;;;;5045963;28;20021;-60
2021/03/07 11:11:54;;;;;;;9.80;5.68;;;12.80;99.90;;;;;;5047506;28;20041;-59
2021/03/07 11:14:20;;;;;;;11.70;6.03;;;12.70;99.90;;;;;;5048608;28;20049;-59
2021/03/07 11:16:46;;;;;;;10.30;6.68;;;12.60;99.90;;;;;;5041010;28;20033;-58
2021/03/07 11:19:11;;;;;;;10.25;6.95;;;12.50;99.90;;;;;;5039091;28;20783;-58
2021/03/07 11:21:37;;;;;;;13.88;7.13;;;12.50;99.90;;;;;;5046646;28;20135;-59
2021/03/07 11:24:04;;;;;;;14.55;7.35;;;12.60;99.90;;;;;;5045725;28;20624;-58
2021/03/07 11:26:29;;;;;;;9.88;4.95;;;12.50;99.90;;;;;;5047231;28;20039;-59
2021/03/07 11:28:55;;;;;;;8.43;4.45;;;12.60;99.90;;;;;;5046794;28;20029;-59
2021/03/07 11:31:21;;;;;;;9.10;4.82;;;12.80;99.90;;;;;;5047800;28;20032;-58
2021/03/07 11:33:46;;;;;;;12.43;5.25;;;12.80;99.90;;;;;;5046648;28;20147;-58
2021/03/07 11:36:13;;;;;;;7.57;4.43;;;12.90;99.60;;;;;;5047703;28;20056;-58
2021/03/07 11:38:39;;;;;;;10.70;3.63;;;13.20;99.20;;;;;;5047421;28;20029;-58
2021/03/07 11:41:05;;;;;;;7.43;3.53;;;13.30;98.50;;;;;;5047316;28;20029;-58
2021/03/07 11:43:30;;;;;;;7.22;3.33;;;13.30;98.20;;;;;;5047374;28;20028;-59
2021/03/07 11:45:56;;;;;;;8.02;3.67;;;13.50;97.90;;;;;;5047627;28;20033;-58
2021/03/07 11:48:22;;;;;;;7.45;3.60;;;13.50;97.90;;;;;;5047715;28;20095;-58
2021/03/07 11:50:48;;;;;;;8.70;4.05;;;13.40;98.00;;;;;;5047367;28;20024;-58
2021/03/07 11:53:13;;;;;;;8.40;3.83;;;13.50;98.00;;;;;;5045930;28;20028;-58
2021/03/07 11:55:39;;;;;;;7.38;4.32;;;13.60;97.40;;;;;;5047364;28;20406;-58
2021/03/07 11:58:05;;;;;;;13.05;5.40;;;13.70;97.50;;;;;;5046490;28;20032;-58
2021/03/07 12:00:30;;;;;;;16.30;5.15;;;13.90;96.80;;;;;;5046421;28;20032;-58
2021/03/07 12:02:56;;;;;;;11.13;5.45;;;14.00;96.20;;;;;;5046302;28;20036;-58
2021/03/07 12:05:22;;;;;;;6.63;3.58;;;14.30;96.00;;;;;;5047552;28;20388;-58
2021/03/07 12:07:47;;;;;;;11.13;4.28;;;14.50;96.00;;;;;;5046534;28;20028;-58
2021/03/07 12:10:13;;;;;;;9.85;4.47;;;14.40;95.80;;;;;;5046021;28;20045;-58
2021/03/07 12:12:39;;;;;;;9.10;4.25;;;14.20;95.70;;;;;;5045461;28;20432;-58
2021/03/07 12:15:05;;;;;;;11.25;4.45;;;14.20;96.00;;;;;;5046865;28;20047;-58
2021/03/07 12:17:31;;;;;;;14.32;4.97;;;14.10;95.80;;;;;;5045554;28;20064;-59
2021/03/07 12:19:56;;;;;;;10.07;4.10;;;14.10;96.20;;;;;;5045056;28;20068;-58
2021/03/07 12:22:22;;;;;;;7.90;3.88;;;14.00;96.00;;;;;;5047077;28;20044;-58
2021/03/07 12:24:48;;;;;;;7.10;3.00;;;14.00;96.30;;;;;;5045205;28;20025;-58
2021/03/07 12:27:14;;;;;;;5.05;2.70;;;14.10;96.40;;;;;;5046120;28;20045;-58
2021/03/07 12:29:39;;;;;;;10.25;5.05;;;14.00;96.40;;;;;;5046374;28;20025;-58
2021/03/07 12:32:06;;;;;;;9.75;5.07;;;14.00;97.70;;;;;;5045947;28;20035;-58
2021/03/07 12:34:32;;;;;;;5.60;3.00;;;14.00;96.90;;;;;;5045385;28;20506;-58
2021/03/07 12:36:59;;;;;;;8.50;3.47;;;14.10;96.90;;;;;;5044244;28;20025;-58
2021/03/07 12:39:24;;;;;;;5.70;3.30;;;13.90;96.60;;;;;;5045541;28;20040;-58
2021/03/07 12:41:50;;;;;;;6.72;3.05;;;13.90;96.60;;;;;;5047105;28;20025;-58
2021/03/07 12:44:16;;;;;;;9.50;4.30;;;13.90;96.60;;;;;;5046430;28;20727;-58
2021/03/07 12:46:41;;;;;;;9.23;4.22;;;13.90;96.60;;;;;;5046167;28;21774;-58
2021/03/07 12:49:09;;;;;;;9.38;4.35;;;14.10;96.20;;;;;;5044410;28;20068;-58
2021/03/07 12:51:36;;;;;;;11.45;4.85;;;14.20;96.20;;;;;;5044901;28;20056;-58